createdAt,value
2019-04-05T00:04:37.831Z,9.09
2019-04-05T00:09:42.901Z,9.02
2019-04-05T00:14:48.660Z,9.10
2019-04-05T00:19:53.490Z,9.33
2019-04-05T00:24:58.548Z,8.79
2019-04-05T00:30:03.208Z,8.37
2019-04-05T00:35:08.247Z,8.81
2019-04-05T00:40:14.333Z,8.77
2019-04-05T00:45:27.892Z,9.15
2019-04-05T00:50:25.807Z,8.89
2019-04-05T00:55:30.687Z,8.16
2019-04-05T01:00:35.530Z,8.21
2019-04-05T01:05:40.275Z,8.66
2019-04-05T01:10:45.115Z,9.03
2019-04-05T01:15:51.043Z,8.25
2019-04-05T01:20:55.975Z,8.84
2019-04-05T01:26:01.508Z,8.94
2019-04-05T01:31:06.241Z,8.08
2019-04-05T01:36:11.090Z,8.45
2019-04-05T01:41:17.474Z,7.96
2019-04-05T01:46:22.115Z,7.88
2019-04-05T01:51:26.970Z,7.58
2019-04-05T01:56:33.323Z,8.10
2019-04-05T02:01:38.362Z,6.86
2019-04-05T02:06:43.231Z,7.62
2019-04-05T02:11:47.972Z,7.53
2019-04-05T02:16:52.943Z,7.76
2019-04-05T02:21:57.857Z,7.53
2019-04-05T02:27:02.815Z,7.44
2019-04-05T02:32:07.564Z,7.61
2019-04-05T02:37:12.632Z,7.26
2019-04-05T02:42:17.504Z,7.43
2019-04-05T02:47:23.870Z,7.57
2019-04-05T02:52:28.581Z,7.70
2019-04-05T02:57:33.377Z,7.41
2019-04-05T03:02:38.522Z,7.24
2019-04-05T03:07:43.253Z,7.51
2019-04-05T03:12:48.261Z,7.49
2019-04-05T03:17:53.027Z,7.64
2019-04-05T03:22:57.781Z,7.91
2019-04-05T03:28:02.493Z,7.70
2019-04-05T03:33:07.149Z,7.93
2019-04-05T03:38:12.035Z,7.39
2019-04-05T03:43:16.611Z,7.71
2019-04-05T03:48:21.365Z,6.38
2019-04-05T03:53:26.106Z,6.93
2019-04-05T03:58:30.954Z,7.28
2019-04-05T04:03:35.597Z,7.43
2019-04-05T04:08:40.361Z,7.38
2019-04-05T04:13:45.297Z,7.45
2019-04-05T04:18:50.102Z,7.27
2019-04-05T04:23:55.099Z,7.18
2019-04-05T04:28:59.924Z,7.47
2019-04-05T04:34:05.798Z,7.75
2019-04-05T04:39:10.759Z,8.03
2019-04-05T04:44:15.601Z,7.98
2019-04-05T04:49:20.891Z,9.61
2019-04-05T04:54:26.662Z,11.16
2019-04-05T04:59:31.448Z,10.87
2019-04-05T05:04:36.499Z,11.05
2019-04-05T05:09:41.349Z,11.54
2019-04-05T05:14:47.827Z,11.68
2019-04-05T05:19:52.670Z,12.09
2019-04-05T05:24:57.687Z,11.73
2019-04-05T05:30:02.681Z,12.40
2019-04-05T05:35:07.871Z,11.85
2019-04-05T05:40:12.801Z,11.81
2019-04-05T05:45:17.632Z,12.34
2019-04-05T05:50:22.362Z,12.49
2019-04-05T05:55:30.206Z,12.19
2019-04-05T06:00:35.133Z,12.38
2019-04-05T06:05:40.070Z,13.17
2019-04-05T06:10:44.863Z,13.05
2019-04-05T06:15:49.479Z,12.79
2019-04-05T06:20:54.811Z,13.17
2019-04-05T06:25:59.713Z,13.74
2019-04-05T06:31:04.613Z,14.44
2019-04-05T06:36:09.765Z,14.63
2019-04-05T06:41:14.605Z,15.18
2019-04-05T06:46:20.031Z,14.73
2019-04-05T06:51:25.166Z,14.65
2019-04-05T06:56:29.990Z,14.30
2019-04-05T07:01:34.771Z,15.18
2019-04-05T07:06:39.447Z,15.20
2019-04-05T07:11:44.654Z,15.89
2019-04-05T07:16:51.235Z,16.18
2019-04-05T07:21:56.295Z,15.86
2019-04-05T07:27:01.201Z,16.56
2019-04-05T07:32:06.499Z,16.29
2019-04-05T07:37:11.933Z,16.09
2019-04-05T07:42:16.748Z,16.86
2019-04-05T07:47:24.375Z,17.37
2019-04-05T07:52:29.109Z,17.72
2019-04-05T07:57:33.938Z,16.33
2019-04-05T08:02:38.691Z,16.75
2019-04-05T08:07:46.418Z,17.58
2019-04-05T08:12:51.320Z,17.64
2019-04-05T08:17:56.097Z,17.46
2019-04-05T08:23:01.443Z,17.99
2019-04-05T08:28:06.764Z,17.95
2019-04-05T08:33:11.862Z,18.46
2019-04-05T08:38:16.922Z,18.47
2019-04-05T08:43:21.735Z,19.03
2019-04-05T08:48:26.712Z,18.09
2019-04-05T08:53:31.484Z,19.15
2019-04-05T08:58:37.901Z,19.23
2019-04-05T09:03:42.590Z,19.44
2019-04-05T09:08:47.317Z,19.48
2019-04-05T09:13:52.277Z,19.43
2019-04-05T09:18:58.239Z,19.44
2019-04-05T09:24:03.118Z,19.65
2019-04-05T09:29:09.489Z,19.60
2019-04-05T09:34:14.626Z,19.73
2019-04-05T09:39:19.365Z,20.39
2019-04-05T09:44:24.904Z,20.50
2019-04-05T09:49:36.571Z,20.80
2019-04-05T09:54:36.062Z,20.57
2019-04-05T09:59:41.095Z,20.97
2019-04-05T10:04:46.018Z,20.37
2019-04-05T10:09:52.445Z,20.77
2019-04-05T10:14:57.224Z,20.96
2019-04-05T10:20:02.029Z,20.38
2019-04-05T10:25:07.384Z,20.69
2019-04-05T10:30:12.950Z,21.43
2019-04-05T10:35:17.796Z,21.93
2019-04-05T10:40:22.397Z,22.22
2019-04-05T10:45:28.824Z,21.30
2019-04-05T10:50:33.382Z,20.74
2019-04-05T10:55:38.408Z,20.19
2019-04-05T11:00:43.345Z,20.73
2019-04-05T11:05:49.397Z,19.56
2019-04-05T11:10:54.901Z,20.30
2019-04-05T11:15:59.597Z,20.14
2019-04-05T11:21:04.387Z,20.33
2019-04-05T11:26:09.200Z,20.43
2019-04-05T11:31:14.078Z,19.57
2019-04-05T11:36:18.967Z,20.02
2019-04-05T11:41:23.782Z,20.31
2019-04-05T11:46:28.862Z,19.79
2019-04-05T11:51:33.535Z,19.94
2019-04-05T11:56:38.116Z,19.72
2019-04-05T12:01:47.347Z,19.96
2019-04-05T12:06:52.551Z,20.32
2019-04-05T12:11:57.587Z,19.87
2019-04-05T12:17:05.270Z,20.03
2019-04-05T12:22:10.453Z,20.36
2019-04-05T12:27:15.056Z,20.65
2019-04-05T12:32:32.920Z,20.73
2019-04-05T12:37:28.417Z,19.86
2019-04-05T12:42:33.275Z,20.72
2019-04-05T12:47:40.043Z,20.48
2019-04-05T12:52:44.815Z,20.16
2019-04-05T12:57:49.560Z,20.28
2019-04-05T13:02:56.871Z,20.45
2019-04-05T13:08:00.588Z,20.85
2019-04-05T13:13:05.332Z,21.43
2019-04-05T13:18:09.969Z,21.63
2019-04-05T13:23:15.664Z,21.14
2019-04-05T13:28:20.582Z,21.69
2019-04-05T13:33:28.879Z,22.09
2019-04-05T13:38:33.001Z,21.14
2019-04-05T13:43:39.156Z,22.07
2019-04-05T13:48:44.273Z,21.16
2019-04-05T13:53:50.197Z,21.06
2019-04-05T13:58:54.994Z,21.04
2019-04-05T14:03:59.643Z,21.36
2019-04-05T14:09:05.907Z,21.10
2019-04-05T14:14:12.174Z,20.49
2019-04-05T14:19:19.222Z,19.94
2019-04-05T14:24:23.980Z,20.77
2019-04-05T14:29:33.156Z,21.47
2019-04-05T14:34:38.220Z,20.90
2019-04-05T14:39:43.998Z,21.45
2019-04-05T14:44:48.948Z,20.93
2019-04-05T14:49:53.901Z,21.20
2019-04-05T14:54:59.979Z,20.87
2019-04-05T15:00:10.136Z,20.61
2019-04-05T15:05:20.657Z,20.74
2019-04-05T15:10:29.293Z,20.82
2019-04-05T15:15:38.287Z,20.90
2019-04-05T15:20:47.900Z,19.63
2019-04-05T15:25:58.820Z,20.38
2019-04-05T15:31:04.408Z,19.95
2019-04-05T15:36:09.176Z,20.56
2019-04-05T15:41:14.041Z,19.44
2019-04-05T15:46:19.876Z,20.04
2019-04-05T15:51:25.000Z,20.24
2019-04-05T15:56:33.252Z,20.27
2019-04-05T16:01:36.559Z,20.34
2019-04-05T16:06:41.404Z,20.33
2019-04-05T16:11:46.969Z,20.63
2019-04-05T16:16:51.716Z,20.61
2019-04-05T16:21:59.117Z,20.43
2019-04-05T16:27:03.964Z,20.16
2019-04-05T16:32:10.441Z,19.82
2019-04-05T16:37:15.276Z,19.63
2019-04-05T16:42:20.033Z,18.81
2019-04-05T16:47:24.995Z,19.41
2019-04-05T16:52:29.733Z,18.94
2019-04-05T16:57:35.605Z,18.11
2019-04-05T17:02:40.262Z,18.25
2019-04-05T17:07:45.084Z,18.38
2019-04-05T17:12:49.931Z,18.84
2019-04-05T17:17:56.518Z,18.26
2019-04-05T17:23:01.154Z,18.34
2019-04-05T17:28:06.108Z,18.20
2019-04-05T17:33:11.058Z,17.65
2019-04-05T17:38:15.809Z,18.13
2019-04-05T17:43:20.749Z,18.30
2019-04-05T17:48:26.502Z,17.52
2019-04-05T17:53:31.443Z,17.66
2019-04-05T17:58:38.024Z,18.22
2019-04-05T18:03:43.513Z,18.22
2019-04-05T18:08:48.262Z,17.61
2019-04-05T18:13:53.031Z,17.68
2019-04-05T18:18:57.739Z,17.81
2019-04-05T18:24:04.151Z,17.87
2019-04-05T18:29:09.278Z,17.93
2019-04-05T18:34:14.330Z,17.67
2019-04-05T18:39:21.330Z,17.56
2019-04-05T18:44:26.264Z,17.82
2019-04-05T18:49:31.172Z,17.47
2019-04-05T18:54:36.708Z,17.53
2019-04-05T18:59:41.528Z,17.31
2019-04-05T19:04:46.485Z,17.32
2019-04-05T19:09:51.531Z,17.36
2019-04-05T19:15:00.733Z,16.78
2019-04-05T19:20:11.615Z,17.02
2019-04-05T19:25:23.454Z,16.96
2019-04-05T19:51:11.263Z,15.20
2019-04-05T19:56:16.450Z,14.92
2019-04-05T20:01:25.023Z,14.76
2019-04-05T20:06:31.037Z,15.10
2019-04-05T20:11:37.916Z,15.32
2019-04-05T20:16:46.338Z,14.51
2019-04-05T20:21:56.907Z,14.73
2019-04-05T20:27:04.453Z,14.92
2019-04-05T20:32:09.783Z,14.57
2019-04-05T20:37:14.645Z,14.14
2019-04-05T20:42:20.023Z,14.23
2019-04-05T20:47:25.006Z,14.20
2019-04-05T20:52:29.800Z,13.26
2019-04-05T20:57:34.992Z,13.78
2019-04-05T21:02:41.480Z,13.25
2019-04-05T21:07:46.770Z,13.57
2019-04-05T21:12:52.307Z,12.84
2019-04-05T21:17:58.945Z,13.15
2019-04-05T21:23:07.164Z,13.12
2019-04-05T21:28:12.925Z,12.25
2019-04-05T21:33:18.898Z,12.66
2019-04-05T21:38:23.850Z,13.19
2019-04-05T21:43:30.604Z,13.45
2019-04-05T21:48:35.572Z,13.64
2019-04-05T21:53:40.576Z,13.49
2019-04-05T21:58:45.697Z,13.95
2019-04-05T22:03:50.554Z,12.90
2019-04-05T22:08:55.376Z,13.05
2019-04-05T22:14:00.129Z,13.74
2019-04-05T22:19:05.156Z,13.24
2019-04-05T22:24:09.910Z,13.25
2019-04-05T22:29:14.747Z,13.70
2019-04-05T22:34:19.621Z,13.44
2019-04-05T22:39:24.567Z,12.94
2019-04-05T22:44:38.716Z,12.78
2019-04-05T22:49:36.995Z,13.05
2019-04-05T22:54:41.752Z,13.16
2019-04-05T22:59:46.698Z,12.85
2019-04-05T23:04:51.335Z,13.27
2019-04-05T23:09:56.080Z,12.78
2019-04-05T23:15:02.124Z,11.80
2019-04-05T23:20:08.237Z,12.41
2019-04-05T23:25:21.519Z,12.70
2019-04-05T23:30:22.639Z,12.36
2019-04-05T23:35:27.476Z,12.62
2019-04-05T23:40:32.980Z,12.17
2019-04-05T23:45:39.102Z,11.84
2019-04-05T23:50:43.952Z,12.18
2019-04-05T23:55:48.691Z,11.84
